Flight Track Log - Related Links

Times and Time Zones

All times are in EDT time to prevent confusion due to time zone crossing. See the SKW4621 flight status page for this flight to view local times or setup timezone preferences in your user account.

Time Position Orientation Groundspeed Altitude Reporting Facility
EDT Latitude Longitude Course Direction KTS MPH feet Rate Location/Type
Thu 03:23:58 PM 44.9167 -93.2500 299° West 168 193 2,100  Level Minneapolis TRACON
Thu 03:24:40 PM 44.9422 -93.2694 332° Northwest 184 212 3,000 2,135 Climbing Minneapolis Center
Thu 03:25:42 PM 45.0000 -93.3269 325° Northwest 254 292 5,800 2,806 Climbing Minneapolis Center
Thu 03:26:44 PM 45.0417 -93.4044 307° West 248 285 8,800 2,710 Climbing Minneapolis Center
Thu 03:27:00 PM 45.2298 -93.6059 295° West  Level FlightAware Approximate
Thu 03:27:46 PM 45.0861 -93.4847 308° West 261 300 11,400  Level Minneapolis Center
Thu 03:28:00 PM 45.2718 -93.7294 300° West  Level FlightAware Approximate
Thu 03:28:48 PM 45.1442 -93.5867 309° West 281 323 14,100  Level Minneapolis Center
Thu 03:29:00 PM 45.3218 -93.8465 299° West  Level FlightAware Approximate
Thu 03:29:50 PM 45.1953 -93.6764 309° West 293 337 15,900  Level Minneapolis Center
Thu 03:30:52 PM 45.2475 -93.7708 308° West 306 352 17,700 1,500 Climbing Minneapolis Center
Thu 03:31:54 PM 45.3000 -93.8647 309° West 303 349 19,000 1,366 Climbing Minneapolis Center
Thu 03:32:55 PM 45.3539 -93.9619 308° West 313 360 20,500 1,415 Climbing Minneapolis Center
Thu 03:33:57 PM 45.4153 -94.0544 313° West 323 372 21,900 1,306 Climbing Minneapolis Center
Thu 03:34:59 PM 45.5042 -94.1489 323° Northwest 335 386 23,200 1,016 Climbing Minneapolis Center
Thu 03:36:01 PM 45.5786 -94.2303 323° Northwest 338 389 24,000 387 Climbing Minneapolis Center
Thu 03:37:03 PM 45.6572 -94.3175 322° Northwest 355 409 24,000  Level Minneapolis Center
Thu 03:38:05 PM 45.7403 -94.4092 322° Northwest 373 429 24,000  Level Minneapolis Center
Thu 03:39:07 PM 45.8067 -94.5181 311° West 373 429 24,000  Level Minneapolis Center
Thu 03:40:09 PM 45.8639 -94.6328 306° West 362 417 24,000  Level Minneapolis Center
Thu 03:41:11 PM 45.9331 -94.7714 306° West 358 412 24,000  Level Minneapolis Center
Thu 03:42:13 PM 45.9897 -94.8861 305° West 356 410 24,000  Level Minneapolis Center
Thu 03:43:15 PM 46.0481 -95.0019 306° West 358 412 24,000  Level Minneapolis Center
Thu 03:44:17 PM 46.1142 -95.1356 306° West 360 414 24,000  Level Minneapolis Center
Thu 03:46:21 PM 46.2339 -95.3800 305° West 364 419 24,000  Level Minneapolis Center
Thu 03:47:23 PM 46.2889 -95.4939 305° West 367 422 24,000  Level Minneapolis Center
Thu 03:48:26 PM 46.3469 -95.6122 305° West 364 419 24,000  Level Minneapolis Center
Thu 03:49:27 PM 46.4053 -95.7319 305° West 365 420 24,000 -98 Level Minneapolis Center
Thu 03:50:29 PM 46.4694 -95.8650 305° West 370 426 23,800 -1,355 Descending Minneapolis Center
Thu 03:51:31 PM 46.5303 -95.9925 305° West 382 440 21,200 -3,000 Descending Minneapolis Center
Thu 03:52:33 PM 46.5972 -96.1311 305° West 373 429 17,600 -3,339 Descending Minneapolis Center
Thu 03:53:35 PM 46.6550 -96.2531 305° West 353 406 14,300 -3,048 Descending Minneapolis Center
Thu 03:54:37 PM 46.7325 -96.3411 322° Northwest 339 390 11,300 -2,032 Descending Minneapolis Center
Thu 03:55:39 PM 46.8022 -96.4086 326° Northwest 289 333 10,100 -1,355 Descending Minneapolis Center
Thu 03:56:41 PM 46.8642 -96.4658 328° Northwest 255 293 8,500 -1,500 Descending Minneapolis Center
Thu 03:57:43 PM 46.9203 -96.5231 325° Northwest 255 293 7,000 -1,597 Descending Minneapolis Center
Thu 03:58:45 PM 46.9786 -96.5844 324° Northwest 249 287 5,200 -1,452 Descending Minneapolis Center
Thu 03:59:47 PM 47.0050 -96.6664 295° West 223 257 4,000 -1,065 Descending Minneapolis Center
Thu 04:00:49 PM 47.0097 -96.7483 275° West 192 221 3,000 -774 Descending Minneapolis Center
Thu 04:01:51 PM 47.0025 -96.8100 260° West 144 166 2,400 -581 Descending Minneapolis Center

Login

Don't have an account? Register now (free) for customized features, flight alerts, and more!